Terminal Aerodrome Forecast
Issued by NWS Tuscon, AZ

Home | Current Version | Previous Version | Text Only | Print | Product List | Glossary On
Versions: 1 2 3 4 5 6 7 8 9 10 11 12 13
000
FTUS45 KTWC 272300
TAFTUS
TAF
KTUS 272331Z 2800/2824 09010KT P6SM SKC
     FM280400 13008KT P6SM FEW250
     FM281400 13013G23KT P6SM SCT250
     FM281900 23005KT P6SM SCT250
     FM282200 33007KT P6SM SCT250=

USA.gov is the U.S. government's official web portal to all federal, state and local government web resources and services.